Time;durP1;ratioP1;P1;durP2;ratioP2;P2;SDS_P1;SDS_P2;PMS_P1;PMS_P2;Temp;Humidity;BMP_temperature;BMP_pressure;BME280_temperature;BME280_humidity;BME280_pressure;Samples;Min_cycle;Max_cycle;Signal;HPM_P1;HPM_P2
2021/03/29 00:01:01;;;;;;;;;18.50;15.75;;;;;;;;12051668;29;8897;-52
2021/03/29 00:07:05;;;;;;;;;16.25;15.25;;;;;;;;12060552;29;8983;-50
2021/03/29 00:13:07;;;;;;;;;13.00;13.00;;;;;;;;12059948;29;8873;-49
2021/03/29 00:19:09;;;;;;;;;19.00;16.25;;;;;;;;12061456;29;8885;-50
2021/03/29 00:25:14;;;;;;;;;17.25;15.00;;;;;;;;12059124;29;8884;-49
2021/03/29 00:31:15;;;;;;;;;19.00;17.25;;;;;;;;12059252;29;8891;-47
2021/03/29 00:37:18;;;;;;;;;20.00;16.50;;;;;;;;12060097;29;8868;-47
2021/03/29 00:43:24;;;;;;;;;14.00;12.75;;;;;;;;12058720;29;8915;-50
2021/03/29 00:49:26;;;;;;;;;13.00;12.00;;;;;;;;12060635;29;8873;-52
2021/03/29 00:55:29;;;;;;;;;10.75;9.00;;;;;;;;12058182;29;8905;-46
2021/03/29 01:01:40;;;;;;;;;12.25;11.00;;;;;;;;12059206;29;8881;-48
2021/03/29 01:07:46;;;;;;;;;11.75;11.75;;;;;;;;12013070;29;8955;-52
2021/03/29 01:13:53;;;;;;;;;11.75;11.50;;;;;;;;12012238;29;8859;-47
2021/03/29 01:20:00;;;;;;;;;14.50;13.50;;;;;;;;12014474;29;8864;-48
2021/03/29 01:26:29;;;;;;;;;13.50;12.75;;;;;;;;12025292;29;8982;-51
2021/03/29 01:32:31;;;;;;;;;15.75;14.25;;;;;;;;12013696;29;9333;-48
2021/03/29 01:38:34;;;;;;;;;19.00;17.75;;;;;;;;12011615;29;8883;-52
2021/03/29 01:44:37;;;;;;;;;18.50;16.50;;;;;;;;12010947;29;8872;-51
2021/03/29 01:50:41;;;;;;;;;23.00;18.25;;;;;;;;12012926;29;8859;-50
2021/03/29 01:56:43;;;;;;;;;16.25;16.25;;;;;;;;12010374;29;8921;-49
2021/03/29 02:02:45;;;;;;;;;18.50;14.75;;;;;;;;12025130;29;8871;-49
2021/03/29 02:08:47;;;;;;;;;20.50;16.50;;;;;;;;12009770;29;9651;-52
2021/03/29 02:14:48;;;;;;;;;16.75;15.50;;;;;;;;12009880;29;8867;-50
2021/03/29 02:20:51;;;;;;;;;16.00;14.75;;;;;;;;12010387;29;8891;-50
2021/03/29 02:26:53;;;;;;;;;18.50;16.00;;;;;;;;12007988;29;8902;-49
2021/03/29 02:32:56;;;;;;;;;19.00;16.25;;;;;;;;12010656;29;8902;-49
2021/03/29 02:38:58;;;;;;;;;21.00;18.50;;;;;;;;12008636;29;8890;-51
2021/03/29 02:45:00;;;;;;;;;19.25;16.25;;;;;;;;12009176;29;8871;-52
2021/03/29 02:51:05;;;;;;;;;17.50;15.50;;;;;;;;12009154;29;8892;-50
2021/03/29 02:57:07;;;;;;;;;17.75;16.00;;;;;;;;12008328;29;8888;-47
2021/03/29 03:03:10;;;;;;;;;20.25;15.75;;;;;;;;12009720;29;8905;-48
2021/03/29 03:09:13;;;;;;;;;28.25;24.00;;;;;;;;12007406;29;8899;-46
2021/03/29 03:15:20;;;;;;;;;20.25;18.75;;;;;;;;12008761;29;8871;-48
2021/03/29 03:21:22;;;;;;;;;17.50;15.50;;;;;;;;12008357;29;8910;-49
2021/03/29 03:27:23;;;;;;;;;19.75;19.75;;;;;;;;12035278;29;9643;-47
2021/03/29 03:33:28;;;;;;;;;28.75;19.50;;;;;;;;12053838;29;8887;-50
2021/03/29 03:39:30;;;;;;;;;18.50;18.50;;;;;;;;12056380;29;8881;-52
2021/03/29 03:45:39;;;;;;;;;23.00;18.75;;;;;;;;12062391;29;8877;-51
2021/03/29 03:51:44;;;;;;;;;11.25;10.25;;;;;;;;12059980;29;8903;-51
2021/03/29 03:57:46;;;;;;;;;21.00;19.00;;;;;;;;12060680;29;8968;-53
2021/03/29 04:03:47;;;;;;;;;15.00;15.00;;;;;;;;12491067;24;8920;-51
2021/03/29 04:09:58;;;;;;;;;6.25;4.00;;;;;;;;12062527;29;8861;-48
2021/03/29 04:16:04;;;;;;;;;22.75;18.75;;;;;;;;12062713;29;8996;-48
2021/03/29 04:22:06;;;;;;;;;25.50;19.75;;;;;;;;12062609;29;8878;-52
2021/03/29 04:28:07;;;;;;;;;21.75;18.25;;;;;;;;12063005;29;8865;-51
2021/03/29 04:34:09;;;;;;;;;22.50;22.00;;;;;;;;12062534;29;8873;-50
2021/03/29 04:40:11;;;;;;;;;19.25;16.50;;;;;;;;12062242;29;8877;-48
2021/03/29 04:46:12;;;;;;;;;20.25;20.25;;;;;;;;12062660;29;8853;-49
2021/03/29 04:52:14;;;;;;;;;21.25;21.25;;;;;;;;12060226;29;8971;-52
2021/03/29 04:58:16;;;;;;;;;21.00;20.75;;;;;;;;12061314;29;8865;-48
2021/03/29 05:04:17;;;;;;;;;21.00;21.00;;;;;;;;12042382;29;8865;-48
2021/03/29 05:10:18;;;;;;;;;22.50;20.00;;;;;;;;12021458;29;8876;-53
2021/03/29 05:16:20;;;;;;;;;20.50;18.25;;;;;;;;12022366;29;8911;-51
2021/03/29 05:22:21;;;;;;;;;20.50;17.75;;;;;;;;12012084;29;8880;-53
2021/03/29 05:28:23;;;;;;;;;23.75;21.75;;;;;;;;12012121;29;8856;-54
2021/03/29 05:34:25;;;;;;;;;26.00;21.50;;;;;;;;12010934;29;8883;-52
2021/03/29 05:40:26;;;;;;;;;26.50;22.00;;;;;;;;12016856;29;8872;-52
2021/03/29 05:46:28;;;;;;;;;21.50;21.50;;;;;;;;12011598;29;8872;-53
2021/03/29 05:52:29;;;;;;;;;22.75;17.25;;;;;;;;12030695;29;8858;-52
2021/03/29 06:04:44;;;;;;;;;25.25;21.75;;;;;;;;12053895;29;8904;-54
2021/03/29 06:10:49;;;;;;;;;22.00;22.00;;;;;;;;12053669;29;8861;-53
2021/03/29 06:16:59;;;;;;;;;34.75;28.75;;;;;;;;12024188;29;8872;-55
2021/03/29 06:23:10;;;;;;;;;31.00;30.50;;;;;;;;12035948;29;8877;-51
2021/03/29 06:29:19;;;;;;;;;27.75;23.50;;;;;;;;12014205;29;8887;-55
2021/03/29 06:35:23;;;;;;;;;21.25;21.00;;;;;;;;12018604;29;8859;-53
2021/03/29 06:41:26;;;;;;;;;29.75;27.50;;;;;;;;12041868;29;8884;-53
2021/03/29 06:47:33;;;;;;;;;27.75;24.75;;;;;;;;12043472;29;8908;-52
2021/03/29 06:53:41;;;;;;;;;64.00;51.25;;;;;;;;12043443;29;8881;-60
2021/03/29 06:59:42;;;;;;;;;27.00;23.50;;;;;;;;12038409;29;8960;-52
2021/03/29 07:05:44;;;;;;;;;72.00;57.50;;;;;;;;12056036;29;8992;-53
2021/03/29 07:11:46;;;;;;;;;21.75;20.50;;;;;;;;12040864;29;8870;-52
2021/03/29 07:17:49;;;;;;;;;27.25;24.25;;;;;;;;12027359;29;8896;-55
2021/03/29 07:23:52;;;;;;;;;22.50;21.50;;;;;;;;12051562;29;8869;-53
2021/03/29 07:29:54;;;;;;;;;16.25;16.25;;;;;;;;12063436;29;9632;-53
2021/03/29 07:35:56;;;;;;;;;20.75;19.75;;;;;;;;12045936;29;8901;-52
2021/03/29 07:42:25;;;;;;;;;38.00;34.00;;;;;;;;12042505;29;8877;-54
2021/03/29 07:48:35;;;;;;;;;67.50;51.25;;;;;;;;12032032;29;8857;-51
2021/03/29 07:54:54;;;;;;;;;57.25;47.50;;;;;;;;12038829;29;9003;-54
2021/03/29 08:01:04;;;;;;;;;29.50;28.00;;;;;;;;12030071;29;8924;-54
2021/03/29 08:07:57;;;;;;;;;18.00;17.25;;;;;;;;12020249;29;9462;-54
2021/03/29 08:13:58;;;;;;;;;18.00;17.33;;;;;;;;12019682;29;8871;-53
2021/03/29 08:20:33;;;;;;;;;29.25;24.50;;;;;;;;12005540;29;8864;-58
2021/03/29 08:26:38;;;;;;;;;17.33;16.00;;;;;;;;12032941;29;8876;-54
2021/03/29 08:32:40;;;;;;;;;15.75;14.75;;;;;;;;12057920;29;8945;-53
2021/03/29 08:38:42;;;;;;;;;20.00;17.50;;;;;;;;12020368;29;8986;-55
2021/03/29 08:44:45;;;;;;;;;18.50;16.75;;;;;;;;12030930;29;8895;-54
2021/03/29 08:50:48;;;;;;;;;14.33;14.33;;;;;;;;12034148;29;8936;-49
2021/03/29 08:56:54;;;;;;;;;18.00;18.00;;;;;;;;12014717;29;8872;-53
2021/03/29 09:02:55;;;;;;;;;16.00;15.67;;;;;;;;12054117;29;8975;-49
2021/03/29 09:09:17;;;;;;;;;21.33;21.33;;;;;;;;12031943;29;8872;-50
2021/03/29 09:15:19;;;;;;;;;16.33;15.67;;;;;;;;12041647;29;8899;-53
2021/03/29 09:21:24;;;;;;;;;18.00;15.67;;;;;;;;12011262;29;8864;-52
2021/03/29 09:27:32;;;;;;;;;12.00;10.00;;;;;;;;12011958;29;8970;-50
2021/03/29 09:33:34;;;;;;;;;12.00;12.00;;;;;;;;12015230;29;9697;-53
2021/03/29 09:39:38;;;;;;;;;21.25;19.25;;;;;;;;12013067;29;8872;-52
2021/03/29 09:45:41;;;;;;;;;11.33;11.33;;;;;;;;12010813;29;8902;-51
2021/03/29 09:51:48;;;;;;;;;13.00;13.00;;;;;;;;12043496;29;8868;-56
2021/03/29 09:57:50;;;;;;;;;11.67;11.67;;;;;;;;12036384;29;8861;-52
2021/03/29 10:03:55;;;;;;;;;14.67;13.00;;;;;;;;12022916;29;8864;-52
2021/03/29 10:10:03;;;;;;;;;18.67;15.33;;;;;;;;12058911;29;8883;-54
2021/03/29 10:16:21;;;;;;;;;12.33;11.00;;;;;;;;12020575;29;8883;-56
2021/03/29 10:22:42;;;;;;;;;7.00;7.00;;;;;;;;12028524;29;8852;-53
2021/03/29 10:29:10;;;;;;;;;11.00;10.00;;;;;;;;12026994;29;8942;-50
2021/03/29 10:35:12;;;;;;;;;6.67;6.67;;;;;;;;12041100;29;8872;-52
2021/03/29 10:41:13;;;;;;;;;9.67;9.67;;;;;;;;12029246;29;8891;-50
2021/03/29 10:47:15;;;;;;;;;10.33;10.33;;;;;;;;12017438;29;10048;-55
2021/03/29 10:53:17;;;;;;;;;7.67;7.67;;;;;;;;12042338;29;8861;-56
2021/03/29 10:59:19;;;;;;;;;10.33;9.00;;;;;;;;12037485;29;8879;-56
2021/03/29 11:05:22;;;;;;;;;11.33;11.33;;;;;;;;12060487;29;8875;-54
2021/03/29 11:11:24;;;;;;;;;15.67;14.33;;;;;;;;12027808;29;9596;-53
2021/03/29 11:17:26;;;;;;;;;8.67;8.67;;;;;;;;12009047;29;9032;-51
2021/03/29 11:23:28;;;;;;;;;7.00;7.00;;;;;;;;12006682;29;8876;-53
2021/03/29 11:29:29;;;;;;;;;8.67;8.67;;;;;;;;12013763;29;8869;-48
2021/03/29 11:35:30;;;;;;;;;9.00;9.00;;;;;;;;12020450;29;8879;-56
2021/03/29 11:41:32;;;;;;;;;9.33;9.33;;;;;;;;12007971;29;8872;-52
2021/03/29 11:47:39;;;;;;;;;8.00;8.00;;;;;;;;12028855;29;8873;-51
2021/03/29 11:53:42;;;;;;;;;10.33;10.33;;;;;;;;12019686;29;8875;-50
2021/03/29 11:59:49;;;;;;;;;7.00;7.00;;;;;;;;12008801;29;9118;-54
2021/03/29 12:05:57;;;;;;;;;9.00;9.00;;;;;;;;12020334;29;8870;-54
2021/03/29 12:11:59;;;;;;;;;8.00;8.00;;;;;;;;12067027;29;8897;-54
2021/03/29 12:18:00;;;;;;;;;5.33;4.00;;;;;;;;12071922;29;8868;-54
2021/03/29 12:24:14;;;;;;;;;4.33;3.00;;;;;;;;12034004;29;8876;-52
2021/03/29 12:30:17;;;;;;;;;11.67;11.67;;;;;;;;12042235;29;8963;-55
2021/03/29 12:36:21;;;;;;;;;8.00;7.00;;;;;;;;12045810;29;8945;-52
2021/03/29 12:42:29;;;;;;;;;7.33;7.33;;;;;;;;12021032;29;8875;-53
2021/03/29 12:48:34;;;;;;;;;10.00;8.67;;;;;;;;12012604;29;8884;-52
2021/03/29 12:54:36;;;;;;;;;9.33;7.33;;;;;;;;12026000;29;8936;-51
2021/03/29 13:00:38;;;;;;;;;9.33;8.33;;;;;;;;12014190;29;8876;-52
2021/03/29 13:06:56;;;;;;;;;8.00;8.00;;;;;;;;12029162;29;8877;-52
2021/03/29 13:12:59;;;;;;;;;7.67;6.67;;;;;;;;12049129;29;8902;-56
2021/03/29 13:19:03;;;;;;;;;7.33;7.33;;;;;;;;12014083;29;9026;-56
2021/03/29 13:25:07;;;;;;;;;6.00;6.00;;;;;;;;12013210;29;9637;-53
2021/03/29 13:31:09;;;;;;;;;10.00;9.00;;;;;;;;12041744;29;9621;-50
2021/03/29 13:37:11;;;;;;;;;7.33;7.00;;;;;;;;12011898;29;8879;-56
2021/03/29 13:43:15;;;;;;;;;8.00;8.00;;;;;;;;12021421;29;8875;-50
2021/03/29 13:49:17;;;;;;;;;8.00;8.00;;;;;;;;12008600;29;8880;-51
2021/03/29 13:55:20;;;;;;;;;9.00;7.33;;;;;;;;12034724;29;9566;-51
2021/03/29 14:01:30;;;;;;;;;9.00;9.00;;;;;;;;12006982;29;8911;-54
2021/03/29 14:07:32;;;;;;;;;12.00;10.00;;;;;;;;12011931;29;8879;-52
2021/03/29 14:13:33;;;;;;;;;8.00;8.00;;;;;;;;12018307;29;8903;-56
2021/03/29 14:19:35;;;;;;;;;8.67;8.00;;;;;;;;12009747;29;9618;-53
2021/03/29 14:25:37;;;;;;;;;8.33;8.33;;;;;;;;12011223;29;8883;-53
2021/03/29 14:31:39;;;;;;;;;7.67;7.67;;;;;;;;12009195;29;9672;-51
2021/03/29 14:50:10;;;;;;;;;9.33;8.00;;;;;;;;12009130;29;8867;-51
2021/03/29 14:56:12;;;;;;;;;11.33;8.33;;;;;;;;12008992;29;8875;-52
2021/03/29 15:02:13;;;;;;;;;9.33;9.33;;;;;;;;12007637;29;8876;-53
2021/03/29 15:08:15;;;;;;;;;7.00;7.00;;;;;;;;12009395;29;8894;-55
2021/03/29 15:14:16;;;;;;;;;7.67;6.00;;;;;;;;12018359;29;9648;-53
2021/03/29 15:20:17;;;;;;;;;10.00;9.33;;;;;;;;12010602;29;8906;-55
2021/03/29 15:26:19;;;;;;;;;12.67;7.67;;;;;;;;12006895;29;8884;-52
2021/03/29 15:32:20;;;;;;;;;13.67;9.67;;;;;;;;12005468;29;8880;-51
2021/03/29 15:38:22;;;;;;;;;9.33;9.33;;;;;;;;12023531;29;9010;-53
2021/03/29 15:44:25;;;;;;;;;13.67;11.67;;;;;;;;12022245;29;8944;-50
2021/03/29 15:50:27;;;;;;;;;15.00;13.33;;;;;;;;12021798;29;9723;-52
2021/03/29 15:56:31;;;;;;;;;14.33;12.67;;;;;;;;12022992;29;8868;-53
2021/03/29 16:02:57;;;;;;;;;13.33;12.67;;;;;;;;12039118;29;8999;-55
2021/03/29 16:08:59;;;;;;;;;20.00;18.67;;;;;;;;12023105;29;8856;-52
2021/03/29 16:15:02;;;;;;;;;13.33;11.33;;;;;;;;12022003;29;8848;-52
2021/03/29 16:21:04;;;;;;;;;22.75;19.50;;;;;;;;12022185;29;8860;-51
2021/03/29 16:27:06;;;;;;;;;16.50;16.00;;;;;;;;12021470;29;8896;-52
2021/03/29 16:33:07;;;;;;;;;13.33;12.00;;;;;;;;12021762;29;8879;-53
2021/03/29 16:39:08;;;;;;;;;15.50;15.50;;;;;;;;12023134;29;9838;-54
2021/03/29 16:45:10;;;;;;;;;20.25;18.00;;;;;;;;12018207;29;8888;-53
2021/03/29 16:51:11;;;;;;;;;21.75;18.50;;;;;;;;12014356;29;8871;-50
2021/03/29 16:57:13;;;;;;;;;22.25;20.25;;;;;;;;12013969;29;8864;-56
2021/03/29 17:03:15;;;;;;;;;12.25;9.75;;;;;;;;12013039;29;8903;-54
2021/03/29 17:09:16;;;;;;;;;22.25;19.75;;;;;;;;12015021;29;8895;-55
2021/03/29 17:15:18;;;;;;;;;20.50;17.75;;;;;;;;12012648;29;8887;-54
2021/03/29 17:21:19;;;;;;;;;23.25;21.25;;;;;;;;12013671;29;9929;-55
2021/03/29 17:27:21;;;;;;;;;15.50;15.00;;;;;;;;12012673;29;8891;-50
2021/03/29 17:33:22;;;;;;;;;20.00;18.75;;;;;;;;12012303;29;8887;-51
2021/03/29 17:39:24;;;;;;;;;23.50;22.25;;;;;;;;12012854;29;8892;-52
2021/03/29 17:45:46;;;;;;;;;19.50;18.25;;;;;;;;12010083;29;9324;-52
2021/03/29 17:51:50;;;;;;;;;23.25;20.50;;;;;;;;12011723;29;8935;-52
2021/03/29 17:57:51;;;;;;;;;21.75;21.75;;;;;;;;12010963;29;8986;-48
2021/03/29 18:03:53;;;;;;;;;23.50;22.00;;;;;;;;12010415;29;8908;-51
2021/03/29 18:09:54;;;;;;;;;22.00;19.00;;;;;;;;12011698;29;8879;-51
2021/03/29 18:15:56;;;;;;;;;18.75;18.75;;;;;;;;12029974;29;8853;-52
2021/03/29 18:21:57;;;;;;;;;26.50;22.75;;;;;;;;12055630;29;8869;-50
2021/03/29 18:27:59;;;;;;;;;28.25;26.50;;;;;;;;12054969;29;8909;-51
2021/03/29 18:34:01;;;;;;;;;23.00;19.25;;;;;;;;12053801;29;9611;-50
2021/03/29 18:40:04;;;;;;;;;23.50;23.50;;;;;;;;12055865;29;8888;-53
2021/03/29 18:46:06;;;;;;;;;22.50;22.50;;;;;;;;12053757;29;8873;-51
2021/03/29 18:52:07;;;;;;;;;28.00;25.50;;;;;;;;12054593;29;8865;-55
2021/03/29 18:58:09;;;;;;;;;22.50;22.00;;;;;;;;12053696;29;8872;-54
2021/03/29 19:04:12;;;;;;;;;23.50;17.00;;;;;;;;12029612;29;9659;-52
2021/03/29 19:10:15;;;;;;;;;20.75;19.75;;;;;;;;12008451;29;8884;-58
2021/03/29 19:16:18;;;;;;;;;17.00;16.25;;;;;;;;12036089;29;9000;-52
2021/03/29 19:22:21;;;;;;;;;14.75;14.75;;;;;;;;12054401;29;8913;-49
2021/03/29 19:28:23;;;;;;;;;22.75;20.75;;;;;;;;12052485;29;8861;-51
2021/03/29 19:34:29;;;;;;;;;27.00;25.00;;;;;;;;12052350;29;8904;-51
2021/03/29 19:40:31;;;;;;;;;22.50;21.00;;;;;;;;12053714;29;8869;-50
2021/03/29 19:46:32;;;;;;;;;21.25;20.00;;;;;;;;12051777;29;8994;-53
2021/03/29 19:52:35;;;;;;;;;24.50;21.75;;;;;;;;12053075;29;8920;-50
2021/03/29 19:58:37;;;;;;;;;21.25;20.50;;;;;;;;12051970;29;8861;-52
2021/03/29 20:04:54;;;;;;;;;22.75;19.00;;;;;;;;12051873;29;8873;-50
2021/03/29 20:10:55;;;;;;;;;23.75;21.50;;;;;;;;12053466;29;8904;-54
2021/03/29 20:16:58;;;;;;;;;30.50;24.50;;;;;;;;12050873;29;8853;-51
2021/03/29 20:23:00;;;;;;;;;26.75;24.00;;;;;;;;12058599;29;8865;-49
2021/03/29 20:29:01;;;;;;;;;23.25;22.25;;;;;;;;12059720;29;8982;-49
2021/03/29 20:35:04;;;;;;;;;28.00;25.50;;;;;;;;12060186;29;8861;-54
2021/03/29 20:41:05;;;;;;;;;31.50;28.75;;;;;;;;12060490;29;8896;-50
2021/03/29 20:47:07;;;;;;;;;24.25;23.00;;;;;;;;12058533;29;8888;-50
2021/03/29 20:53:09;;;;;;;;;23.25;21.25;;;;;;;;12059983;29;9044;-51
2021/03/29 20:59:10;;;;;;;;;25.50;24.75;;;;;;;;12058649;29;8903;-51
2021/03/29 21:05:12;;;;;;;;;22.50;22.50;;;;;;;;12058465;29;8944;-52
2021/03/29 21:11:15;;;;;;;;;24.75;18.75;;;;;;;;12059580;29;8918;-52
2021/03/29 21:17:17;;;;;;;;;25.25;25.00;;;;;;;;12057389;29;8876;-53
2021/03/29 21:23:18;;;;;;;;;24.25;22.25;;;;;;;;12059015;29;9658;-55
2021/03/29 21:29:20;;;;;;;;;30.00;27.25;;;;;;;;12057281;29;8897;-52
2021/03/29 21:35:23;;;;;;;;;30.00;26.00;;;;;;;;12056794;29;8880;-51
2021/03/29 21:41:24;;;;;;;;;36.50;33.50;;;;;;;;12058158;29;8892;-48
2021/03/29 21:47:32;;;;;;;;;29.25;28.50;;;;;;;;12054835;29;9003;-52
2021/03/29 21:53:34;;;;;;;;;28.50;27.25;;;;;;;;12057396;29;8903;-49
2021/03/29 21:59:36;;;;;;;;;29.50;25.25;;;;;;;;12055703;29;8892;-50
2021/03/29 22:05:38;;;;;;;;;29.00;25.50;;;;;;;;12054277;29;8872;-49
2021/03/29 22:11:40;;;;;;;;;34.00;32.25;;;;;;;;12056260;29;8873;-50
2021/03/29 22:17:41;;;;;;;;;32.50;29.00;;;;;;;;12055131;29;8880;-49
2021/03/29 22:23:44;;;;;;;;;34.00;29.00;;;;;;;;12055770;29;8861;-50
2021/03/29 22:48:13;;;;;;;;;26.00;25.25;;;;;;;;12052866;29;8850;-48
2021/03/29 22:54:16;;;;;;;;;40.00;38.00;;;;;;;;12055268;29;8873;-51
2021/03/29 23:00:20;;;;;;;;;32.00;31.50;;;;;;;;12053365;29;8861;-49
2021/03/29 23:06:22;;;;;;;;;34.75;31.50;;;;;;;;12053799;29;8889;-50
2021/03/29 23:12:23;;;;;;;;;38.50;31.25;;;;;;;;12053812;29;8923;-50
2021/03/29 23:18:25;;;;;;;;;32.25;30.75;;;;;;;;12052606;29;9015;-50
2021/03/29 23:24:27;;;;;;;;;32.50;32.50;;;;;;;;12053467;29;8891;-47
2021/03/29 23:30:28;;;;;;;;;45.25;36.75;;;;;;;;12052423;29;8865;-50
2021/03/29 23:36:29;;;;;;;;;35.75;34.75;;;;;;;;12052646;29;8998;-52
2021/03/29 23:42:31;;;;;;;;;31.25;31.25;;;;;;;;12052322;29;8889;-49
2021/03/29 23:48:32;;;;;;;;;33.25;30.50;;;;;;;;12051412;29;8888;-50
2021/03/29 23:54:34;;;;;;;;;41.50;36.00;;;;;;;;12053058;29;8884;-50
